createdAt,value
2024-05-09T00:04:10.555Z,94024.55
2024-05-09T00:09:17.778Z,94009.44
2024-05-09T00:14:24.905Z,94014.83
2024-05-09T00:19:32.286Z,94012.06
2024-05-09T00:24:39.613Z,93958.73
2024-05-09T00:29:46.703Z,93999.61
2024-05-09T00:34:53.658Z,93993.89
2024-05-09T00:40:01.054Z,93992.12
2024-05-09T00:45:08.930Z,93996.08
2024-05-09T00:50:22.659Z,93991.58
2024-05-09T00:55:25.056Z,93983.91
2024-05-09T01:00:38.889Z,93978.84
2024-05-09T01:05:41.744Z,93978.30
2024-05-09T01:10:51.063Z,93979.71
2024-05-09T01:15:58.649Z,93978.19
2024-05-09T01:21:07.713Z,93975.22
2024-05-09T01:26:15.307Z,93973.31
2024-05-09T01:31:22.750Z,93980.35
2024-05-09T01:36:30.005Z,93977.58
2024-05-09T01:41:36.854Z,93982.58
2024-05-09T01:46:43.837Z,93982.98
2024-05-09T01:51:51.191Z,93989.91
2024-05-09T01:56:58.566Z,93988.09
2024-05-09T02:02:05.987Z,93995.17
2024-05-09T02:07:13.651Z,94000.02
2024-05-09T02:12:20.722Z,94003.70
2024-05-09T02:17:28.119Z,94001.87
2024-05-09T02:22:35.204Z,93998.34
2024-05-09T02:27:42.934Z,94002.94
2024-05-09T02:32:50.026Z,94004.85
2024-05-09T02:37:57.572Z,94005.38
2024-05-09T02:43:05.495Z,94000.83
2024-05-09T02:48:16.170Z,94007.86
2024-05-09T02:53:23.591Z,94002.23
2024-05-09T02:58:30.901Z,94008.44
2024-05-09T03:03:38.412Z,94008.01
2024-05-09T03:08:51.944Z,94009.08
2024-05-09T03:13:58.715Z,94005.34
2024-05-09T03:19:05.750Z,94005.77
2024-05-09T03:24:13.698Z,94010.30
2024-05-09T03:29:20.499Z,94007.25
2024-05-09T03:34:27.673Z,94007.08
2024-05-09T03:39:35.039Z,94004.70
2024-05-09T03:44:42.077Z,94003.25
2024-05-09T03:49:49.133Z,94003.28
2024-05-09T03:54:56.327Z,93992.77
2024-05-09T04:00:05.497Z,93998.92
2024-05-09T04:05:12.419Z,93998.92
2024-05-09T04:10:27.760Z,94001.38
2024-05-09T04:15:29.759Z,93999.34
2024-05-09T04:20:39.746Z,93997.42
2024-05-09T04:25:47.109Z,93998.08
2024-05-09T04:30:54.298Z,93997.55
2024-05-09T04:36:01.570Z,94006.60
2024-05-09T04:41:08.612Z,94007.48
2024-05-09T04:46:16.873Z,94002.65
2024-05-09T04:51:23.768Z,93999.58
2024-05-09T04:56:31.289Z,94011.59
2024-05-09T05:01:39.061Z,94025.78
2024-05-09T05:06:46.190Z,94025.58
2024-05-09T05:11:53.142Z,94026.38
2024-05-09T05:17:00.510Z,94015.97
2024-05-09T05:22:07.791Z,94024.74
2024-05-09T05:27:15.481Z,94024.98
2024-05-09T05:32:22.332Z,94033.23
2024-05-09T05:37:29.460Z,94035.47
2024-05-09T05:42:36.254Z,94037.19
2024-05-09T05:47:43.454Z,94043.72
2024-05-09T05:52:50.504Z,94044.32
2024-05-09T05:57:57.397Z,94040.77
2024-05-09T06:03:04.635Z,94048.51
2024-05-09T06:08:11.872Z,94049.30
2024-05-09T06:13:18.957Z,94045.88
2024-05-09T06:18:26.234Z,94048.50
2024-05-09T06:23:35.182Z,94056.63
2024-05-09T06:28:42.360Z,94057.02
2024-05-09T06:33:49.490Z,94067.20
2024-05-09T06:38:56.437Z,94068.88
2024-05-09T06:44:03.500Z,94077.98
2024-05-09T06:49:13.311Z,94081.70
2024-05-09T06:54:20.700Z,94083.06
2024-05-09T06:59:27.540Z,94088.61
2024-05-09T07:04:34.643Z,94090.00
2024-05-09T07:09:41.599Z,94097.50
2024-05-09T07:14:48.861Z,94098.81
2024-05-09T07:19:55.918Z,94092.20
2024-05-09T07:25:03.026Z,94098.52
2024-05-09T07:30:13.586Z,94097.98
2024-05-09T07:35:19.935Z,94106.38
2024-05-09T07:40:33.396Z,94098.81
2024-05-09T07:55:53.658Z,94106.55
2024-05-09T08:01:02.267Z,94111.13
2024-05-09T08:06:09.189Z,94108.23
2024-05-09T08:11:16.287Z,94116.37
2024-05-09T08:16:23.284Z,94107.68
2024-05-09T08:21:30.447Z,94110.14
2024-05-09T08:26:37.288Z,94112.74
2024-05-09T08:31:44.403Z,94112.02
2024-05-09T08:36:52.102Z,94119.74
2024-05-09T08:41:59.374Z,94121.36
2024-05-09T08:47:09.508Z,94114.16
2024-05-09T08:52:16.512Z,94116.13
2024-05-09T08:57:24.768Z,94113.70
2024-05-09T09:02:33.282Z,94113.36
2024-05-09T09:07:51.875Z,94120.78
2024-05-09T09:12:58.930Z,94107.67
2024-05-09T09:18:07.862Z,94112.59
2024-05-09T09:23:14.544Z,94118.53
2024-05-09T09:28:24.207Z,94111.78
2024-05-09T09:33:33.001Z,94108.75
2024-05-09T09:38:40.572Z,94107.66
2024-05-09T09:43:48.157Z,94103.63
2024-05-09T09:48:55.889Z,94103.41
2024-05-09T09:54:05.712Z,94107.13
2024-05-09T09:59:15.075Z,94104.09
2024-05-09T10:04:22.379Z,94107.49
2024-05-09T10:09:29.827Z,94102.67
2024-05-09T10:14:51.029Z,94108.61
2024-05-09T10:20:18.361Z,94091.76
2024-05-09T10:25:19.924Z,94092.11
2024-05-09T10:30:34.131Z,94085.11
2024-05-09T10:35:36.378Z,94075.89
2024-05-09T10:40:45.645Z,94074.55
2024-05-09T10:45:58.693Z,94071.59
2024-05-09T10:51:08.812Z,94061.00
2024-05-09T10:56:19.460Z,94055.34
2024-05-09T11:01:27.432Z,94060.44
2024-05-09T11:06:37.151Z,94049.90
2024-05-09T11:11:44.227Z,94050.91
2024-05-09T11:17:09.062Z,94049.84
2024-05-09T11:22:16.812Z,94051.77
2024-05-09T11:27:25.682Z,94036.38
2024-05-09T11:32:33.224Z,94038.73
2024-05-09T11:37:41.303Z,94026.55
2024-05-09T11:42:51.548Z,94025.02
2024-05-09T11:47:56.936Z,94028.56
2024-05-09T11:53:04.328Z,94025.11
2024-05-09T11:58:12.758Z,94018.45
2024-05-09T12:03:21.031Z,94011.95
2024-05-09T12:08:28.190Z,94002.00
2024-05-09T12:13:35.339Z,93997.31
2024-05-09T12:18:42.779Z,93996.52
2024-05-09T12:23:50.007Z,93984.13
2024-05-09T12:28:56.953Z,93990.90
2024-05-09T12:34:04.267Z,93993.98
2024-05-09T12:39:12.105Z,93985.81
2024-05-09T12:44:19.209Z,93985.34
2024-05-09T12:49:26.197Z,93985.41
2024-05-09T12:54:33.985Z,93984.36
2024-05-09T12:59:41.826Z,93985.94
2024-05-09T13:04:48.994Z,93984.33
2024-05-09T13:09:56.503Z,93972.80
2024-05-09T13:15:03.621Z,93973.80
2024-05-09T13:20:18.900Z,93976.34
2024-05-09T13:25:19.496Z,93968.92
2024-05-09T13:30:35.114Z,93969.58
2024-05-09T13:35:35.811Z,93837.97
2024-05-09T13:40:43.086Z,93960.53
2024-05-09T13:45:50.418Z,93959.53
2024-05-09T13:50:58.022Z,93945.61
2024-05-09T13:56:05.004Z,93945.56
2024-05-09T14:01:11.842Z,93936.94
2024-05-09T14:06:18.722Z,93939.44
2024-05-09T14:11:25.923Z,93942.34
2024-05-09T14:16:34.143Z,93943.15
2024-05-09T14:21:41.854Z,93939.30
2024-05-09T14:26:49.158Z,93941.77
2024-05-09T14:31:56.321Z,93936.47
2024-05-09T14:37:03.718Z,93939.83
2024-05-09T14:42:10.455Z,93936.50
2024-05-09T14:47:19.761Z,93929.02
2024-05-09T14:52:27.115Z,93930.91
2024-05-09T14:57:34.306Z,93923.83
2024-05-09T15:02:41.506Z,93922.58
2024-05-09T15:07:48.482Z,93929.59
2024-05-09T15:12:55.479Z,93929.05
2024-05-09T15:18:02.921Z,93926.06
2024-05-09T15:23:09.984Z,93928.53
2024-05-09T15:28:17.170Z,93926.27
2024-05-09T15:33:24.285Z,93929.37
2024-05-09T15:38:31.018Z,93923.72
2024-05-09T15:43:38.242Z,93917.34
2024-05-09T15:48:45.368Z,93924.19
2024-05-09T15:53:52.881Z,93917.30
2024-05-09T15:59:00.579Z,93911.14
2024-05-09T16:04:08.063Z,93918.25
2024-05-09T16:09:15.738Z,93918.67
2024-05-09T16:14:22.525Z,93923.59
2024-05-09T16:19:29.529Z,93916.20
2024-05-09T16:24:36.425Z,93920.70
2024-05-09T16:29:43.309Z,93927.49
2024-05-09T16:34:50.225Z,93930.64
2024-05-09T16:39:57.671Z,93931.67
2024-05-09T16:45:04.739Z,93951.08
2024-05-09T16:50:15.831Z,93930.67
2024-05-09T16:55:25.517Z,93936.13
2024-05-09T17:00:40.175Z,93937.09
2024-05-09T17:05:41.502Z,93935.91
2024-05-09T17:10:51.948Z,93945.12
2024-05-09T17:15:59.207Z,93947.38
2024-05-09T17:21:06.749Z,93950.97
2024-05-09T17:26:14.075Z,93958.13
2024-05-09T17:31:21.023Z,93954.36
2024-05-09T17:36:27.843Z,93961.44
2024-05-09T17:41:34.599Z,93966.80
2024-05-09T17:46:42.098Z,93974.91
2024-05-09T17:51:54.415Z,93977.86
2024-05-09T17:57:01.376Z,93974.50
2024-05-09T18:02:08.367Z,93974.88
2024-05-09T18:07:16.054Z,93981.09
2024-05-09T18:12:23.220Z,93985.48
2024-05-09T18:17:30.193Z,93984.30
2024-05-09T18:22:37.154Z,93990.08
2024-05-09T18:27:44.539Z,93989.17
2024-05-09T18:32:51.717Z,93988.36
2024-05-09T18:37:59.251Z,93989.25
2024-05-09T18:43:08.965Z,93998.81
2024-05-09T18:48:16.508Z,94001.55
2024-05-09T18:53:23.772Z,94006.67
2024-05-09T18:58:30.945Z,94019.95
2024-05-09T19:03:39.036Z,94028.04
2024-05-09T19:08:46.314Z,94036.91
2024-05-09T19:13:53.562Z,94041.02
2024-05-09T19:19:01.214Z,94040.02
2024-05-09T19:24:08.447Z,94043.02
2024-05-09T19:29:15.775Z,94047.31
2024-05-09T19:34:23.525Z,94057.14
2024-05-09T19:39:30.892Z,94060.48
2024-05-09T19:44:37.964Z,94068.63
2024-05-09T19:49:45.050Z,94067.94
2024-05-09T19:54:52.079Z,94072.77
2024-05-09T19:59:58.978Z,94078.02
2024-05-09T20:05:06.591Z,94077.02
2024-05-09T20:10:20.629Z,94079.46
2024-05-09T20:15:22.199Z,94084.98
2024-05-09T20:20:37.056Z,94092.33
2024-05-09T20:25:38.142Z,94096.14
2024-05-09T20:30:45.091Z,94093.97
2024-05-09T20:35:53.563Z,94094.55
2024-05-09T20:41:00.492Z,94090.58
2024-05-09T20:46:07.614Z,94098.80
2024-05-09T20:51:14.770Z,94103.61
2024-05-09T20:56:28.288Z,94103.08
2024-05-09T21:01:35.289Z,94107.86
2024-05-09T21:06:42.468Z,94108.92
2024-05-09T21:11:49.281Z,94110.78
2024-05-09T21:16:56.176Z,94108.34
2024-05-09T21:22:03.517Z,94109.59
2024-05-09T21:27:10.672Z,94105.41
2024-05-09T21:32:17.408Z,94113.65
2024-05-09T21:37:24.257Z,94115.20
2024-05-09T21:42:30.995Z,94116.80
2024-05-09T21:47:38.324Z,94111.48
2024-05-09T21:52:45.179Z,94117.63
2024-05-09T21:57:52.071Z,94107.15
2024-05-09T22:02:59.074Z,94113.30
2024-05-09T22:08:06.993Z,94117.83
2024-05-09T22:13:13.918Z,94125.26
2024-05-09T22:18:21.063Z,94127.91
2024-05-09T22:23:28.744Z,94129.18
2024-05-09T22:28:35.509Z,94125.21
2024-05-09T22:33:45.524Z,94133.76
2024-05-09T22:38:50.715Z,94136.15
2024-05-09T22:43:57.639Z,94136.11
2024-05-09T22:49:05.126Z,94129.16
2024-05-09T22:54:12.186Z,94131.77
2024-05-09T22:59:19.404Z,94129.25
2024-05-09T23:04:26.263Z,94129.91
2024-05-09T23:09:33.360Z,94127.62
2024-05-09T23:14:40.328Z,94122.75
2024-05-09T23:19:47.438Z,94121.72
2024-05-09T23:24:54.456Z,94122.14
2024-05-09T23:30:01.583Z,94119.97
2024-05-09T23:35:08.713Z,94118.05
2024-05-09T23:40:18.969Z,94113.23
2024-05-09T23:45:23.947Z,94105.68
2024-05-09T23:50:35.109Z,94105.08
2024-05-09T23:55:39.629Z,94096.67
